Pine, New Mexico
Current Conditions -  °F | °C
As of 4:53 AM on Monday 24 Nov 2014 (Local Time) from KLVS Reporting Station
Clear Clear  
Wind Chill:   Ceiling: Unl
Heat Index: 19°   Visibility: 10mi
Dew Point:   Wind: 10mph
Humidity: 52%   Direction: 350°N
Pressure: 29.97"   Gusts: NA
Location:  35.582°N, 105.558°W
Report Text: KLVS 241153Z AUTO 35009KT 10SM CLR M07/M16 A2997 RMK AO2 SLP164 70003 T10721156 11033 21083 55001
Loading
Personal Weather Stations






























Interactive Weather Map New forecast layout! Learn more

10-Day Weather Forecast

Advertisements
Track Severe Weather on mobile